Time;durP1;ratioP1;P1;durP2;ratioP2;P2;SDS_P1;SDS_P2;PMS_P1;PMS_P2;Temp;Humidity;BMP_temperature;BMP_pressure;BME280_temperature;BME280_humidity;BME280_pressure;Samples;Min_cycle;Max_cycle;Signal;HPM_P1;HPM_P2
2020/12/27 00:01:08;;;;;;;2.41;2.21;;;5.80;99.90;;;9.84;87.43;100257.73;1718797;73;24963;-79
2020/12/27 00:03:24;;;;;;;2.34;2.10;;;5.80;99.90;;;9.80;87.18;100247.32;1716939;73;24910;-79
2020/12/27 00:05:40;;;;;;;2.20;1.90;;;5.80;99.90;;;9.69;87.41;100236.85;1716395;74;24453;-78
2020/12/27 00:07:58;;;;;;;2.64;2.44;;;5.80;99.90;;;9.66;87.61;100218.64;1715982;74;25033;-78
2020/12/27 00:10:14;;;;;;;2.43;2.23;;;5.80;99.90;;;9.70;87.52;100233.41;1715193;74;24658;-78
2020/12/27 00:12:30;;;;;;;2.31;2.21;;;5.80;99.90;;;9.65;87.44;100211.72;1720904;74;24482;-78
2020/12/27 00:14:46;;;;;;;2.13;1.92;;;5.80;99.90;;;9.80;87.01;100218.27;1713281;73;24596;-79
2020/12/27 00:17:06;;;;;;;2.63;2.14;;;5.80;99.90;;;9.55;87.06;100195.64;1712298;74;24555;-78
2020/12/27 00:19:22;;;;;;;1.77;1.52;;;5.70;99.90;;;9.56;87.97;100201.72;1719647;74;24914;-77
2020/12/27 00:21:47;;;;;;;2.50;2.17;;;5.70;99.90;;;9.63;87.05;100191.77;1715456;74;24609;-77
2020/12/27 00:24:03;;;;;;;2.47;2.27;;;5.70;99.90;;;9.49;87.55;100198.22;1716425;74;24636;-78
2020/12/27 00:26:19;;;;;;;2.33;2.12;;;5.70;99.90;;;9.74;86.50;100177.08;1721514;74;24481;-78
2020/12/27 00:28:35;;;;;;;2.02;1.87;;;5.80;99.90;;;9.40;87.32;100172.20;1712905;74;24417;-79
2020/12/27 00:30:52;;;;;;;2.37;2.17;;;5.80;99.90;;;9.50;86.79;100167.92;1720449;74;24476;-78
2020/12/27 00:33:08;;;;;;;2.23;2.03;;;5.80;99.90;;;9.71;85.69;100163.65;1725122;74;24540;-77
2020/12/27 00:35:25;;;;;;;2.12;1.90;;;5.80;99.90;;;9.70;85.78;100165.83;1718156;73;24443;-80
2020/12/27 00:37:41;;;;;;;2.33;2.13;;;5.80;99.90;;;9.41;86.88;100157.46;1717832;74;24876;-78
2020/12/27 00:39:57;;;;;;;2.33;2.10;;;5.80;99.90;;;9.47;86.54;100132.83;1716993;74;24445;-80
2020/12/27 00:42:14;;;;;;;2.09;1.97;;;5.80;99.90;;;9.52;86.17;100162.27;1715378;74;24650;-78
2020/12/27 00:44:31;;;;;;;2.25;1.92;;;5.80;99.90;;;9.76;85.02;100146.34;1717915;74;24915;-79
2020/12/27 00:46:51;;;;;;;1.70;1.51;;;5.80;99.90;;;9.54;85.94;100131.55;1716149;74;24548;-80
2020/12/27 00:49:07;;;;;;;4.22;1.72;;;5.80;99.90;;;9.55;85.87;100124.17;1726396;74;24428;-80
2020/12/27 00:51:24;;;;;;;1.95;1.77;;;5.80;99.90;;;9.76;85.20;100107.34;1717183;74;24873;-78
2020/12/27 00:53:41;;;;;;;2.02;1.83;;;5.80;99.90;;;9.90;84.12;100109.95;1722164;74;25044;-81
2020/12/27 00:55:58;;;;;;;2.60;1.94;;;5.80;99.90;;;9.58;85.12;100104.69;1716484;74;25007;-79
2020/12/27 00:58:14;;;;;;;2.01;1.73;;;5.80;99.90;;;9.48;85.42;100094.27;1716696;74;24457;-79
2020/12/27 01:00:31;;;;;;;1.80;1.64;;;5.80;99.90;;;9.68;84.31;100085.66;1719950;74;25033;-78
2020/12/27 01:02:48;;;;;;;1.86;1.71;;;5.80;99.90;;;9.66;84.49;100076.14;1711644;74;25698;-81
2020/12/27 01:05:24;;;;;;;1.81;1.71;;;5.80;99.90;;;9.67;84.35;100050.14;1718733;74;24421;-79
2020/12/27 01:07:41;;;;;;;1.63;1.53;;;5.80;99.90;;;9.41;84.66;100099.88;1718268;74;24969;-77
2020/12/27 01:09:59;;;;;;;1.83;1.49;;;5.80;99.90;;;9.53;84.39;100023.69;1717283;74;24413;-80
2020/12/27 01:12:15;;;;;;;1.53;1.43;;;5.70;99.90;;;9.48;84.40;100036.69;1718644;74;24443;-77
2020/12/27 01:14:31;;;;;;;2.48;1.60;;;5.70;99.90;;;9.58;83.96;100038.41;1715408;74;25020;-81
2020/12/27 01:16:52;;;;;;;2.85;1.75;;;5.70;99.90;;;9.39;84.51;100041.84;1719364;74;24436;-78
2020/12/27 01:19:09;;;;;;;2.16;1.96;;;5.70;99.90;;;9.49;84.05;100011.12;1715859;74;24511;-79
2020/12/27 01:21:30;;;;;;;2.20;2.00;;;5.70;99.90;;;9.34;84.67;99981.66;1717760;74;24518;-80
2020/12/27 01:24:00;;;;;;;1.81;1.71;;;5.70;99.90;;;9.43;83.95;99990.75;1714513;74;24476;-80
2020/12/27 01:26:18;;;;;;;2.05;1.88;;;5.70;99.90;;;9.61;83.54;99963.49;1718234;74;24484;-79
2020/12/27 01:28:34;;;;;;;2.64;1.95;;;5.70;99.90;;;9.38;84.21;99967.78;1712498;74;24485;-79
2020/12/27 01:30:52;;;;;;;2.20;2.02;;;5.60;99.90;;;9.41;83.79;99971.69;1724188;74;24376;-79
2020/12/27 01:33:10;;;;;;;2.28;2.02;;;5.60;99.90;;;9.35;84.07;99961.30;1716242;74;24966;-78
2020/12/27 01:35:27;;;;;;;2.41;2.09;;;5.70;99.90;;;9.61;83.14;99957.84;1713343;74;24377;-79
2020/12/27 01:37:44;;;;;;;2.30;2.10;;;5.70;99.90;;;9.49;83.49;99937.48;1712183;74;24446;-78
2020/12/27 01:40:07;;;;;;;2.36;2.11;;;5.70;99.90;;;9.55;83.09;99937.05;1712775;74;24463;-78
2020/12/27 01:42:24;;;;;;;2.36;2.16;;;5.70;99.90;;;9.40;83.55;99933.17;1714150;73;24965;-78
2020/12/27 01:44:40;;;;;;;2.24;2.02;;;5.70;99.90;;;9.28;84.17;99897.23;1715443;74;24879;-78
2020/12/27 01:46:59;;;;;;;2.67;2.45;;;5.70;99.90;;;9.57;83.21;99906.75;1712245;74;24999;-78
2020/12/27 01:49:17;;;;;;;2.12;2.02;;;5.60;99.90;;;9.38;83.77;99900.23;1716300;74;24411;-78
2020/12/27 01:51:34;;;;;;;2.06;1.90;;;5.60;99.90;;;9.20;84.48;99875.12;1721539;74;24811;-81
2020/12/27 01:53:52;;;;;;;2.51;2.27;;;5.60;99.90;;;9.33;83.47;99876.86;1721480;74;24450;-80
2020/12/27 01:56:25;;;;;;;1.98;1.83;;;5.60;99.90;;;9.37;83.66;99881.21;1715663;74;24430;-77
2020/12/27 01:58:49;;;;;;;2.78;2.27;;;5.60;99.90;;;9.52;83.15;99884.20;1711387;74;24526;-80
2020/12/27 02:01:08;;;;;;;2.72;2.45;;;5.60;99.90;;;9.41;83.65;99884.23;1717661;74;24427;-81
2020/12/27 02:03:31;;;;;;;2.48;2.28;;;5.60;99.90;;;9.65;82.78;99876.41;1713014;74;24415;-79
2020/12/27 02:05:54;;;;;;;4.10;2.48;;;5.60;99.90;;;9.52;82.53;99874.69;1703396;74;24477;-78
2020/12/27 02:08:12;;;;;;;3.22;2.62;;;5.60;99.90;;;9.46;83.63;99850.44;1712125;74;24564;-78
2020/12/27 02:10:31;;;;;;;2.99;2.67;;;5.60;99.90;;;9.50;83.74;99855.63;1704524;74;24406;-79
2020/12/27 02:12:47;;;;;;;2.86;2.39;;;5.60;99.90;;;9.41;83.58;99856.95;1709403;74;24501;-80
2020/12/27 02:15:08;;;;;;;2.86;2.61;;;5.60;99.90;;;9.49;83.15;99830.52;1708027;74;24468;-80
2020/12/27 02:17:29;;;;;;;2.87;2.58;;;5.60;99.90;;;9.48;83.15;99856.09;1655804;74;24397;-79
2020/12/27 02:19:53;;;;;;;3.69;2.85;;;5.60;99.90;;;9.27;84.36;99840.50;1704591;74;24374;-78
2020/12/27 02:22:15;;;;;;;3.15;2.51;;;5.60;99.90;;;9.47;83.25;99824.45;1704153;74;24934;-80
2020/12/27 02:24:37;;;;;;;3.31;2.75;;;5.60;99.90;;;9.52;83.05;99816.64;1705023;74;24377;-80
2020/12/27 02:27:01;;;;;;;3.14;2.76;;;5.60;99.90;;;9.26;84.29;99805.44;1707711;74;24494;-80
2020/12/27 02:29:17;;;;;;;2.98;2.72;;;5.60;99.90;;;9.24;85.00;99802.84;1706315;74;24578;-80
2020/12/27 02:31:33;;;;;;;3.10;2.57;;;5.60;99.90;;;9.21;84.41;99779.02;1707841;74;24491;-80
2020/12/27 02:33:51;;;;;;;3.46;2.71;;;5.60;99.90;;;9.29;84.29;99797.22;1711479;74;24451;-82
2020/12/27 02:36:07;;;;;;;3.15;2.64;;;5.60;99.90;;;9.21;84.33;99761.30;1708658;74;24554;-78
2020/12/27 02:38:24;;;;;;;2.99;2.70;;;5.60;99.90;;;9.35;83.85;99744.38;1711789;74;24542;-80
2020/12/27 02:40:45;;;;;;;3.04;2.50;;;5.60;99.90;;;9.36;84.24;99725.34;1705934;74;24438;-81
2020/12/27 02:43:03;;;;;;;3.59;2.72;;;5.60;99.90;;;9.41;83.57;99710.15;1707382;74;24974;-79
2020/12/27 02:45:22;;;;;;;2.81;2.54;;;5.60;99.90;;;9.50;83.26;99718.37;1705040;74;24445;-81
2020/12/27 02:47:56;;;;;;;2.54;2.34;;;5.60;99.90;;;9.17;84.45;99698.52;1706201;74;24475;-80
2020/12/27 02:50:16;;;;;;;2.94;2.63;;;5.60;99.90;;;9.33;83.78;99703.23;1706829;74;24851;-79
2020/12/27 02:52:34;;;;;;;2.71;2.50;;;5.60;99.90;;;9.48;82.91;99720.97;1709119;74;24497;-80
2020/12/27 02:54:52;;;;;;;2.50;2.30;;;5.60;99.90;;;9.48;82.93;99705.38;1704218;74;24463;-79
2020/12/27 02:57:11;;;;;;;3.60;2.79;;;5.60;99.90;;;9.50;82.83;99685.43;1704630;74;25041;-81
2020/12/27 02:59:28;;;;;;;4.05;2.50;;;5.60;99.90;;;9.35;83.43;99690.70;1705897;74;24489;-79
2020/12/27 03:01:47;;;;;;;2.60;2.40;;;5.60;99.90;;;9.43;83.64;99685.04;1702008;74;24441;-78
2020/12/27 03:04:14;;;;;;;2.40;2.20;;;5.60;99.90;;;9.38;83.09;99647.81;1707088;74;24387;-82
2020/12/27 03:06:32;;;;;;;2.94;2.50;;;5.60;99.90;;;9.52;82.08;99652.52;1714336;73;24473;-80
2020/12/27 03:08:54;;;;;;;3.64;2.60;;;5.60;99.90;;;9.27;83.75;99636.60;1716404;73;24488;-78
2020/12/27 03:11:11;;;;;;;4.39;2.77;;;5.60;99.90;;;9.42;83.37;99611.84;1715349;73;24990;-82
2020/12/27 03:13:28;;;;;;;3.05;2.52;;;5.60;99.90;;;9.26;83.96;99596.35;1716982;73;24473;-80
2020/12/27 03:15:51;;;;;;;3.24;2.40;;;5.60;99.90;;;9.46;82.79;99592.79;1720454;73;24484;-80
2020/12/27 03:18:28;;;;;;;2.53;2.30;;;5.60;99.90;;;9.48;82.52;99560.30;1716747;73;24956;-80
2020/12/27 03:20:46;;;;;;;2.37;2.16;;;5.60;99.90;;;9.55;82.29;99555.52;1713497;73;24880;-79
2020/12/27 03:23:02;;;;;;;3.02;2.48;;;5.60;99.90;;;9.37;83.01;99533.09;1715585;73;24933;-79
2020/12/27 03:25:20;;;;;;;1.73;1.61;;;5.50;99.90;;;9.35;83.26;99537.42;1719710;73;24389;-80
2020/12/27 03:27:36;;;;;;;3.27;2.47;;;5.50;99.90;;;9.47;82.74;99524.35;1719110;73;25021;-80
2020/12/27 03:29:52;;;;;;;2.35;2.06;;;5.60;99.90;;;9.33;83.31;99541.76;1720519;73;25020;-81
2020/12/27 03:32:11;;;;;;;3.71;2.40;;;5.50;99.90;;;9.29;83.18;99516.69;1717620;73;24405;-77
2020/12/27 03:34:28;;;;;;;2.80;2.26;;;5.50;99.90;;;9.35;83.01;99530.06;1721531;73;24434;-78
2020/12/27 03:36:46;;;;;;;2.98;2.52;;;5.50;99.90;;;9.17;83.63;99505.92;1716175;75;24493;-81
2020/12/27 03:39:04;;;;;;;2.58;2.16;;;5.50;99.90;;;9.20;83.92;99518.02;1718821;73;24361;-80
2020/12/27 03:41:33;;;;;;;2.67;2.47;;;5.50;99.90;;;9.27;83.52;99475.98;1712598;73;24966;-78
2020/12/27 03:44:10;;;;;;;2.89;2.42;;;5.50;99.90;;;9.08;84.61;99491.70;1716381;73;24392;-78
2020/12/27 03:46:36;;;;;;;2.72;2.05;;;5.50;99.90;;;9.21;83.96;99484.23;1657158;75;24844;-77
2020/12/27 03:49:05;;;;;;;2.47;2.11;;;5.50;99.90;;;9.39;83.29;99465.54;1726800;73;24368;-78
2020/12/27 03:51:28;;;;;;;3.18;2.59;;;5.40;99.90;;;9.20;84.02;99436.20;1708956;73;24916;-79
2020/12/27 03:53:44;;;;;;;4.46;2.59;;;5.40;99.90;;;8.95;85.54;99460.59;1724622;73;24457;-79
2020/12/27 03:59:02;;;;;;;2.87;2.52;;;5.40;99.90;;;9.36;84.62;99411.86;1816953;69;25222;-80
2020/12/27 04:01:22;;;;;;;2.78;1.85;;;5.40;99.90;;;9.35;83.81;99390.66;1783065;71;24394;-79
2020/12/27 04:03:39;;;;;;;3.76;2.73;;;5.40;99.90;;;9.43;83.58;99390.16;1773045;71;24875;-79
2020/12/27 04:05:57;;;;;;;3.31;2.37;;;5.40;99.90;;;9.44;83.98;99393.63;1772005;71;24819;-81
2020/12/27 04:08:16;;;;;;;2.69;2.27;;;5.50;99.90;;;9.13;84.40;99360.53;1774104;71;24551;-79
2020/12/27 04:10:34;;;;;;;2.79;2.54;;;5.50;99.90;;;9.39;84.17;99375.92;1783828;71;24451;-80
2020/12/27 04:12:50;;;;;;;2.67;2.30;;;5.50;99.90;;;8.99;85.26;99342.91;1777394;71;24407;-79
2020/12/27 04:15:08;;;;;;;2.59;2.39;;;5.60;99.90;;;9.20;85.11;99392.93;1767841;71;24868;-81
2020/12/27 04:17:25;;;;;;;2.66;2.22;;;5.60;99.90;;;9.36;83.82;99362.96;1768226;71;24398;-80
2020/12/27 04:19:44;;;;;;;2.22;1.92;;;5.60;99.90;;;9.45;83.53;99342.96;1770827;71;24485;-79
2020/12/27 04:22:01;;;;;;;2.15;1.95;;;5.60;99.90;;;9.54;82.96;99316.88;1775729;70;24418;-78
2020/12/27 04:24:19;;;;;;;3.46;2.06;;;5.60;99.90;;;9.44;83.50;99328.22;1762082;71;24425;-78
2020/12/27 04:26:37;;;;;;;2.74;2.15;;;5.70;99.90;;;9.50;83.12;99346.34;1775548;70;24366;-78
2020/12/27 04:28:55;;;;;;;2.23;1.80;;;5.70;99.90;;;9.65;82.65;99325.86;1777393;70;24444;-79
2020/12/27 04:31:18;;;;;;;1.94;1.80;;;5.70;99.90;;;9.49;82.81;99317.36;1774397;71;24453;-78
2020/12/27 04:33:35;;;;;;;1.95;1.75;;;5.70;99.90;;;9.40;83.46;99319.18;1780396;71;24348;-79
2020/12/27 04:35:55;;;;;;;2.27;1.77;;;5.70;99.90;;;9.72;82.33;99314.08;1777189;71;24390;-79
2020/12/27 04:38:14;;;;;;;2.97;2.08;;;5.70;99.90;;;9.76;82.38;99300.19;1771970;71;24429;-79
2020/12/27 04:40:30;;;;;;;2.14;1.93;;;5.70;99.90;;;9.55;82.74;99295.66;1763998;71;24461;-79
2020/12/27 04:42:51;;;;;;;1.97;1.80;;;5.70;99.90;;;9.46;83.30;99312.20;1763347;71;24411;-79
2020/12/27 04:45:10;;;;;;;2.61;1.83;;;5.70;99.90;;;9.31;83.92;99303.69;1769757;70;24359;-79
2020/12/27 04:47:39;;;;;;;1.81;1.71;;;5.70;99.90;;;9.60;82.62;99281.73;1778256;71;24963;-77
2020/12/27 04:50:04;;;;;;;1.98;1.70;;;5.70;99.90;;;9.64;82.92;99277.37;1719693;71;24362;-80
2020/12/27 04:52:23;;;;;;;1.73;1.60;;;5.80;99.90;;;9.76;82.49;99262.92;1772090;71;24484;-78
2020/12/27 04:54:58;;;;;;;1.77;1.67;;;5.80;99.90;;;9.77;82.42;99273.30;1775690;71;24807;-78
2020/12/27 04:57:19;;;;;;;2.18;1.53;;;5.80;99.90;;;9.77;82.76;99243.41;1768974;72;24346;-79
2020/12/27 04:59:36;;;;;;;2.26;1.72;;;5.80;99.90;;;9.73;81.94;99217.05;1784828;71;24424;-78
2020/12/27 05:01:55;;;;;;;2.27;1.56;;;5.80;99.90;;;9.66;82.84;99283.42;1773349;71;24377;-78
2020/12/27 05:04:20;;;;;;;2.15;1.27;;;5.90;99.90;;;9.95;81.14;99252.30;1770523;71;24430;-78
2020/12/27 05:06:35;;;;;;;1.38;1.28;;;5.90;99.90;;;9.70;82.29;99244.81;1771116;71;24433;-79
2020/12/27 05:08:54;;;;;;;2.21;1.42;;;5.90;99.90;;;9.74;82.33;99227.86;1769066;71;24570;-78
2020/12/27 05:11:17;;;;;;;1.23;1.11;;;5.80;99.90;;;9.59;82.70;99218.95;1777621;71;24423;-79
2020/12/27 05:13:36;;;;;;;1.40;1.27;;;5.70;99.90;;;9.77;81.71;99220.48;1773650;71;25007;-79
2020/12/27 05:16:08;;;;;;;1.28;1.18;;;5.60;99.90;;;9.59;82.88;99203.80;1776560;71;24810;-79
2020/12/27 05:18:25;;;;;;;1.53;1.35;;;5.50;99.90;;;9.49;83.28;99192.65;1777309;71;24461;-79
2020/12/27 05:20:43;;;;;;;1.35;1.10;;;5.40;99.90;;;9.79;81.93;99189.67;1775808;71;24881;-79
2020/12/27 05:23:03;;;;;;;1.42;1.31;;;5.30;99.90;;;9.60;82.95;99193.81;1782908;71;24859;-79
2020/12/27 05:25:26;;;;;;;1.79;1.23;;;5.30;99.90;;;9.27;85.42;99155.23;1762926;71;24850;-79
2020/12/27 05:27:57;;;;;;;1.32;1.22;;;5.20;99.90;;;9.36;85.46;99168.98;1771281;71;24441;-78
2020/12/27 05:30:17;;;;;;;2.12;1.34;;;5.10;99.90;;;9.30;86.43;99146.11;1721145;71;24378;-79
2020/12/27 05:35:18;;;;;;;1.95;1.45;;;5.10;99.90;;;9.38;87.28;99128.70;1734718;72;25200;-79
2020/12/27 05:37:54;;;;;;;1.10;1.03;;;5.00;99.90;;;9.17;88.42;99141.07;1693947;75;24986;-79
2020/12/27 05:40:29;;;;;;;1.23;1.13;;;5.00;99.90;;;9.23;88.81;99114.61;1702058;75;24812;-79
2020/12/27 05:42:51;;;;;;;1.26;1.06;;;5.00;99.90;;;9.10;89.39;99097.02;1693265;74;24382;-76
2020/12/27 05:45:19;;;;;;;1.23;1.06;;;5.00;99.90;;;9.11;89.80;99086.62;1699609;75;24726;-77
2020/12/27 05:47:36;;;;;;;1.62;1.03;;;4.90;99.90;;;9.13;90.16;99080.11;1689674;75;24668;-77
2020/12/27 05:49:55;;;;;;;0.70;0.70;;;4.90;99.90;;;8.98;91.05;99066.86;1710782;75;24551;-77
2020/12/27 05:52:15;;;;;;;1.27;1.12;;;4.90;99.90;;;9.16;90.84;99067.08;1695318;75;24477;-79
2020/12/27 05:54:43;;;;;;;2.33;0.86;;;4.90;99.90;;;9.17;90.97;99039.80;1690413;75;24461;-78
2020/12/27 05:57:04;;;;;;;1.07;0.99;;;4.90;99.90;;;9.12;91.32;99012.16;1699905;75;24434;-78
2020/12/27 05:59:25;;;;;;;0.99;0.88;;;4.90;99.90;;;9.01;91.39;99009.71;1697498;75;24962;-77
2020/12/27 06:04:20;;;;;;;1.26;1.00;;;4.90;99.90;;;9.12;92.68;99003.94;1741240;72;25194;-78
2020/12/27 06:07:07;;;;;;;0.84;0.84;;;4.90;99.90;;;8.91;93.28;98991.27;1705440;74;24460;-79
2020/12/27 06:09:55;;;;;;;0.77;0.77;;;4.90;99.90;;;8.95;93.33;99011.52;1710426;74;24354;-79
2020/12/27 06:12:15;;;;;;;0.85;0.69;;;5.00;99.90;;;9.11;93.35;98980.16;1711395;74;24555;-79
2020/12/27 06:14:55;;;;;;;0.73;0.73;;;4.90;99.90;;;8.95;93.06;98986.86;1705590;74;24554;-78
2020/12/27 06:17:16;;;;;;;0.52;0.52;;;4.90;99.90;;;8.98;92.92;98987.69;1708807;74;24390;-77
2020/12/27 06:20:07;;;;;;;1.14;0.81;;;5.00;99.90;;;9.01;93.18;98957.80;1706967;74;24358;-78
2020/12/27 06:22:35;;;;;;;0.80;0.75;;;5.00;99.90;;;8.93;93.97;98930.24;1705469;74;24381;-77
2020/12/27 06:25:11;;;;;;;0.40;0.40;;;4.90;99.90;;;9.08;93.31;98942.56;1709400;74;24557;-77
2020/12/27 06:27:31;;;;;;;0.75;0.74;;;4.90;99.90;;;9.10;93.10;98917.88;1710924;74;24428;-77
2020/12/27 06:29:54;;;;;;;0.56;0.56;;;5.00;99.90;;;8.98;93.93;98908.52;1710961;74;24526;-77
2020/12/27 06:32:15;;;;;;;0.80;0.73;;;5.00;99.90;;;9.15;92.91;98903.94;1711953;74;24992;-78
2020/12/27 06:34:35;;;;;;;1.03;0.80;;;5.00;99.90;;;9.23;93.10;98907.73;1709830;74;24444;-76
2020/12/27 06:36:54;;;;;;;1.16;0.63;;;5.00;99.90;;;8.83;94.61;98876.31;1708535;74;24504;-77
2020/12/27 06:39:31;;;;;;;0.70;0.70;;;5.00;99.90;;;8.96;94.53;98875.69;1675011;74;24407;-77
2020/12/27 06:42:10;;;;;;;0.59;0.59;;;5.00;99.90;;;8.88;95.19;98861.97;1718261;74;24854;-79
2020/12/27 06:47:19;;;;;;;0.64;0.64;;;5.00;99.90;;;8.99;95.01;98845.80;1732313;72;25223;-79
2020/12/27 06:49:37;;;;;;;0.54;0.54;;;5.10;99.90;;;8.73;95.71;98837.52;1686734;74;24380;-79
2020/12/27 06:51:55;;;;;;;0.50;0.50;;;5.00;99.90;;;8.86;95.61;98839.06;1680910;75;24450;-79
2020/12/27 06:54:40;;;;;;;0.65;0.65;;;5.10;99.90;;;9.00;95.57;98805.96;1689810;74;24375;-78
2020/12/27 06:56:56;;;;;;;1.00;0.70;;;5.10;99.90;;;8.93;95.72;98805.66;1682524;75;24556;-78
2020/12/27 06:59:14;;;;;;;0.60;0.60;;;5.10;99.90;;;8.90;96.01;98788.38;1684531;75;24374;-81
2020/12/27 07:01:31;;;;;;;1.05;0.62;;;5.10;99.90;;;8.90;95.51;98788.38;1689313;75;24433;-80
2020/12/27 07:03:48;;;;;;;0.94;0.78;;;5.10;99.90;;;8.91;95.93;98766.75;1689663;75;24868;-79
2020/12/27 07:06:22;;;;;;;1.15;0.73;;;5.10;99.90;;;9.07;96.19;98746.59;1686427;75;24493;-78
2020/12/27 07:08:48;;;;;;;0.76;0.70;;;5.20;99.90;;;9.20;95.61;98742.87;1682536;75;24465;-79
2020/12/27 07:13:45;;;;;;;1.27;0.63;;;5.20;99.90;;;9.16;96.02;98716.12;1731497;72;25216;-79
2020/12/27 07:16:04;;;;;;;0.60;0.59;;;5.20;99.90;;;9.13;95.81;98720.52;1692251;75;24469;-78
2020/12/27 07:18:26;;;;;;;1.23;0.77;;;5.20;99.90;;;9.20;95.92;98714.30;1698216;75;24517;-79
2020/12/27 07:20:45;;;;;;;1.05;0.85;;;5.20;99.90;;;9.13;96.07;98717.91;1698332;75;24861;-78
2020/12/27 07:23:04;;;;;;;0.77;0.75;;;5.20;99.90;;;9.56;94.93;98710.18;1694751;75;24441;-79
2020/12/27 07:25:24;;;;;;;0.65;0.63;;;5.20;99.90;;;9.20;95.41;98694.41;1703973;75;24481;-79
2020/12/27 07:27:45;;;;;;;0.61;0.61;;;5.30;99.90;;;9.16;96.22;98707.47;1690317;75;24476;-77
2020/12/27 07:30:05;;;;;;;0.79;0.79;;;5.30;99.90;;;9.37;95.12;98688.04;1696519;75;24459;-81
2020/12/27 07:32:25;;;;;;;0.68;0.68;;;5.30;99.90;;;9.07;96.43;98747.89;1701896;75;24467;-81
2020/12/27 07:34:44;;;;;;;0.67;0.60;;;5.30;99.90;;;9.30;94.80;98692.49;1697477;75;24921;-81
2020/12/27 07:37:06;;;;;;;0.53;0.53;;;5.30;99.90;;;9.47;95.07;98671.41;1701723;75;24437;-80
2020/12/27 07:39:52;;;;;;;0.71;0.70;;;5.30;99.90;;;9.30;95.10;98648.78;1699794;75;24414;-78
2020/12/27 07:42:13;;;;;;;0.70;0.70;;;5.30;99.90;;;9.13;95.80;98664.69;1672943;76;24553;-78
2020/12/27 07:44:36;;;;;;;0.73;0.59;;;5.30;99.90;;;9.21;95.27;98624.70;1697126;75;24494;-79
2020/12/27 07:46:53;;;;;;;1.04;0.53;;;5.30;99.90;;;9.35;94.89;98620.98;1704258;75;24429;-78
2020/12/27 07:49:12;;;;;;;0.58;0.56;;;5.30;99.90;;;9.47;94.49;98641.53;1692825;75;24524;-81
2020/12/27 07:51:28;;;;;;;0.56;0.56;;;5.30;99.90;;;9.40;94.78;98629.54;1661747;76;24523;-81
2020/12/27 07:53:48;;;;;;;0.63;0.63;;;5.30;99.90;;;9.28;95.39;98602.06;1701515;75;24504;-80
2020/12/27 07:56:09;;;;;;;0.49;0.44;;;5.30;99.90;;;9.53;94.27;98609.76;1694769;75;24452;-79
2020/12/27 07:58:26;;;;;;;0.73;0.73;;;5.30;99.90;;;9.54;94.38;98621.88;1697822;74;24430;-79
2020/12/27 08:00:45;;;;;;;1.12;0.78;;;5.40;99.90;;;9.47;94.89;98590.41;1672286;76;24873;-78
2020/12/27 08:03:06;;;;;;;0.96;0.71;;;5.40;99.90;;;9.44;94.77;98639.00;1696772;75;24493;-79
2020/12/27 08:05:25;;;;;;;0.60;0.60;;;5.40;99.90;;;9.44;94.59;98580.55;1691362;75;24441;-77
2020/12/27 08:07:42;;;;;;;0.58;0.51;;;5.50;99.90;;;9.67;93.96;98579.17;1690438;75;24464;-78
2020/12/27 08:10:00;;;;;;;0.77;0.59;;;5.50;99.90;;;9.56;94.51;98585.05;1700126;75;24511;-78
2020/12/27 08:12:20;;;;;;;0.46;0.46;;;5.60;99.90;;;9.57;94.72;98556.86;1698678;75;24497;-78
2020/12/27 08:14:37;;;;;;;0.66;0.66;;;5.70;99.90;;;9.88;93.73;98550.54;1682591;75;24500;-78
2020/12/27 08:16:53;;;;;;;1.12;0.65;;;5.80;99.90;;;9.94;92.98;98535.63;1679121;75;24636;-79
2020/12/27 08:19:13;;;;;;;0.50;0.50;;;5.80;99.90;;;9.72;94.01;98543.52;1687964;75;24433;-79
2020/12/27 08:21:33;;;;;;;0.49;0.48;;;5.90;99.90;;;9.73;94.18;98541.34;1686624;75;24442;-79
2020/12/27 08:24:06;;;;;;;0.38;0.38;;;6.00;99.90;;;9.89;93.22;98514.11;1693629;75;24479;-78
2020/12/27 08:26:22;;;;;;;0.34;0.34;;;6.00;99.90;;;9.79;93.60;98524.73;1684546;75;24625;-79
2020/12/27 08:28:40;;;;;;;0.69;0.50;;;6.10;99.90;;;9.96;92.52;98508.29;1685778;75;25146;-79
2020/12/27 08:31:00;;;;;;;0.43;0.43;;;6.20;99.90;;;10.01;91.93;98486.94;1689817;75;24450;-80
2020/12/27 08:33:20;;;;;;;0.40;0.40;;;6.20;99.90;;;10.10;91.25;98480.27;1685286;75;24421;-75
2020/12/27 08:35:36;;;;;;;0.35;0.35;;;6.30;99.90;;;10.11;91.13;98498.42;1688877;75;24470;-79
2020/12/27 08:38:00;;;;;;;0.45;0.45;;;6.40;99.90;;;10.14;90.90;98512.64;1688777;75;24492;-79
2020/12/27 08:40:19;;;;;;;0.96;0.43;;;6.40;99.90;;;10.46;90.06;98477.53;1689072;75;24552;-77
2020/12/27 08:45:14;;;;;;;1.12;0.50;;;6.50;99.90;;;10.43;89.86;98472.88;1734089;72;25270;-77
2020/12/27 08:47:41;;;;;;;0.57;0.43;;;6.50;99.90;;;10.38;89.42;98465.64;1694168;75;24528;-78
2020/12/27 08:50:05;;;;;;;0.45;0.45;;;6.60;99.90;;;10.36;89.26;98438.81;1697815;75;24968;-81
2020/12/27 08:52:26;;;;;;;0.59;0.59;;;6.50;99.90;;;10.31;89.21;98448.48;1690414;75;24485;-79
2020/12/27 08:54:43;;;;;;;0.58;0.42;;;6.50;99.90;;;10.10;89.95;98446.46;1696587;73;24512;-78
2020/12/27 08:57:02;;;;;;;0.64;0.64;;;6.30;99.90;;;10.05;90.16;98433.52;1702931;74;24996;-79
2020/12/27 08:59:19;;;;;;;1.09;0.54;;;6.20;99.90;;;10.09;89.81;98430.44;1699496;75;25068;-79
2020/12/27 09:01:36;;;;;;;0.52;0.50;;;6.10;99.90;;;10.08;89.97;98427.00;1701427;75;24441;-78
2020/12/27 09:03:54;;;;;;;0.38;0.38;;;6.00;99.90;;;9.89;90.74;98385.45;1697093;74;24760;-79
2020/12/27 09:06:18;;;;;;;0.40;0.40;;;5.90;99.90;;;10.03;90.64;98409.33;1698789;75;24608;-79
2020/12/27 09:08:34;;;;;;;0.50;0.50;;;5.90;99.90;;;9.96;90.93;98418.61;1697103;75;24476;-79
2020/12/27 09:10:52;;;;;;;0.50;0.44;;;5.80;99.90;;;9.68;92.65;98394.22;1697749;75;24531;-79
2020/12/27 09:13:12;;;;;;;0.91;0.70;;;5.80;99.90;;;9.83;91.68;98373.05;1694354;75;24442;-77
2020/12/27 09:15:31;;;;;;;0.48;0.40;;;5.80;99.90;;;9.86;92.55;98375.13;1700255;74;24465;-80
2020/12/27 09:18:01;;;;;;;0.39;0.33;;;5.80;99.90;;;10.06;91.66;98353.78;1698590;75;24868;-77
2020/12/27 09:20:26;;;;;;;0.34;0.34;;;5.70;99.90;;;10.14;90.85;98341.02;1701863;75;24500;-79
2020/12/27 09:22:46;;;;;;;0.42;0.39;;;5.70;99.90;;;9.77;92.83;98357.16;1695329;75;24478;-80
2020/12/27 09:25:09;;;;;;;0.54;0.54;;;5.70;99.90;;;9.83;92.42;98333.59;1704520;75;24516;-80
2020/12/27 09:27:27;;;;;;;0.40;0.40;;;5.70;99.90;;;10.01;92.56;98318.81;1702633;75;24501;-78
2020/12/27 09:29:44;;;;;;;0.54;0.54;;;5.70;99.90;;;9.76;93.01;98369.75;1701900;75;24431;-80
2020/12/27 09:32:13;;;;;;;0.48;0.46;;;5.70;99.90;;;9.88;92.86;98336.10;1698018;75;24448;-79
2020/12/27 09:34:32;;;;;;;0.54;0.54;;;5.70;99.90;;;9.74;93.27;98317.39;1703242;74;24445;-78
2020/12/27 09:36:48;;;;;;;0.70;0.50;;;5.70;99.90;;;9.95;92.62;98299.94;1696435;75;24874;-80
2020/12/27 09:39:06;;;;;;;1.60;0.60;;;5.70;99.90;;;9.94;92.53;98292.58;1698649;75;24927;-80
2020/12/27 09:41:26;;;;;;;0.43;0.43;;;5.70;99.90;;;9.97;92.21;98287.31;1695153;73;24477;-80
2020/12/27 09:43:55;;;;;;;0.49;0.49;;;5.70;99.90;;;9.87;93.00;98332.64;1699536;75;24446;-79
2020/12/27 09:46:11;;;;;;;0.44;0.38;;;5.80;99.90;;;9.98;92.57;98287.71;1704131;75;24929;-78
2020/12/27 09:48:33;;;;;;;0.45;0.44;;;5.80;99.90;;;9.83;92.90;98301.58;1695885;75;24476;-77
2020/12/27 09:50:50;;;;;;;0.34;0.34;;;5.80;99.90;;;10.03;92.23;98271.54;1704937;75;24455;-78
2020/12/27 09:53:07;;;;;;;0.42;0.42;;;5.80;99.90;;;10.02;92.73;98269.81;1693541;75;24878;-77
2020/12/27 09:55:24;;;;;;;0.42;0.42;;;5.80;99.90;;;9.96;93.45;98267.84;1698544;75;24416;-80
2020/12/27 09:57:41;;;;;;;0.50;0.50;;;5.80;99.90;;;9.90;93.37;98248.52;1698419;75;24458;-79
2020/12/27 09:59:59;;;;;;;0.61;0.46;;;5.80;99.90;;;9.86;93.55;98265.97;1694373;75;24500;-81
2020/12/27 10:02:17;;;;;;;0.66;0.40;;;5.80;99.90;;;9.80;94.10;98234.93;1699306;75;24503;-77
2020/12/27 10:04:34;;;;;;;0.60;0.60;;;5.80;99.90;;;10.02;93.27;98241.69;1695081;75;24431;-79
2020/12/27 10:06:51;;;;;;;0.63;0.48;;;5.80;99.90;;;9.87;94.11;98226.52;1694634;75;24553;-79
2020/12/27 10:09:07;;;;;;;0.78;0.55;;;5.80;99.90;;;9.95;93.28;98231.05;1691466;75;24461;-78
2020/12/27 10:11:24;;;;;;;0.50;0.50;;;5.80;99.90;;;9.97;93.82;98214.53;1700168;74;24462;-79
2020/12/27 10:13:41;;;;;;;0.72;0.62;;;5.80;99.90;;;9.98;93.96;98214.92;1697166;75;24457;-79
2020/12/27 10:15:57;;;;;;;0.56;0.56;;;5.80;99.90;;;9.60;95.49;98214.30;1698872;75;24878;-81
2020/12/27 10:18:12;;;;;;;3.23;0.80;;;5.80;99.90;;;9.92;94.81;98208.61;1694381;75;24815;-79